sensor_id;sensor_type;location;lat;lon;timestamp;P1;durP1;ratioP1;P2;durP2;ratioP2
4268;SDS011;2148;48.554;7.834;2022-08-11T00:01:19;3.33;;;2.00;;
4268;SDS011;2148;48.554;7.834;2022-08-11T00:03:50;3.10;;;2.03;;
4268;SDS011;2148;48.554;7.834;2022-08-11T00:06:23;2.40;;;2.20;;
4268;SDS011;2148;48.554;7.834;2022-08-11T00:08:50;6.60;;;2.50;;
4268;SDS011;2148;48.554;7.834;2022-08-11T00:11:16;3.30;;;2.40;;
4268;SDS011;2148;48.554;7.834;2022-08-11T00:13:43;2.57;;;2.37;;
4268;SDS011;2148;48.554;7.834;2022-08-11T00:18:46;3.27;;;2.50;;
4268;SDS011;2148;48.554;7.834;2022-08-11T00:21:13;3.10;;;2.57;;
4268;SDS011;2148;48.554;7.834;2022-08-11T00:23:44;3.33;;;1.93;;
4268;SDS011;2148;48.554;7.834;2022-08-11T00:26:11;2.90;;;2.40;;
4268;SDS011;2148;48.554;7.834;2022-08-11T00:28:37;4.87;;;2.60;;
4268;SDS011;2148;48.554;7.834;2022-08-11T00:31:04;2.47;;;2.13;;
4268;SDS011;2148;48.554;7.834;2022-08-11T00:33:41;5.03;;;2.40;;
4268;SDS011;2148;48.554;7.834;2022-08-11T00:36:08;2.83;;;2.30;;
4268;SDS011;2148;48.554;7.834;2022-08-11T00:38:35;3.90;;;2.53;;
4268;SDS011;2148;48.554;7.834;2022-08-11T00:41:17;4.63;;;2.60;;
4268;SDS011;2148;48.554;7.834;2022-08-11T00:44:03;2.77;;;2.27;;
4268;SDS011;2148;48.554;7.834;2022-08-11T00:46:56;3.37;;;2.10;;
4268;SDS011;2148;48.554;7.834;2022-08-11T01:06:30;3.67;;;2.60;;
4268;SDS011;2148;48.554;7.834;2022-08-11T01:09:19;2.37;;;2.17;;
4268;SDS011;2148;48.554;7.834;2022-08-11T01:11:52;2.97;;;2.63;;
4268;SDS011;2148;48.554;7.834;2022-08-11T01:14:51;3.57;;;2.50;;
4268;SDS011;2148;48.554;7.834;2022-08-11T01:20:25;3.23;;;2.90;;
4268;SDS011;2148;48.554;7.834;2022-08-11T01:23:09;3.30;;;2.20;;
4268;SDS011;2148;48.554;7.834;2022-08-11T01:25:55;3.47;;;2.47;;
4268;SDS011;2148;48.554;7.834;2022-08-11T01:28:39;2.90;;;2.60;;
4268;SDS011;2148;48.554;7.834;2022-08-11T01:42:16;2.60;;;2.10;;
4268;SDS011;2148;48.554;7.834;2022-08-11T01:50:55;2.60;;;2.37;;
4268;SDS011;2148;48.554;7.834;2022-08-11T01:59:22;3.50;;;2.73;;
4268;SDS011;2148;48.554;7.834;2022-08-11T02:01:56;4.63;;;2.70;;
4268;SDS011;2148;48.554;7.834;2022-08-11T02:18:59;2.90;;;2.70;;
4268;SDS011;2148;48.554;7.834;2022-08-11T02:21:54;2.77;;;2.57;;
4268;SDS011;2148;48.554;7.834;2022-08-11T02:24:48;3.13;;;2.83;;
4268;SDS011;2148;48.554;7.834;2022-08-11T02:27:20;4.27;;;2.50;;
4268;SDS011;2148;48.554;7.834;2022-08-11T02:29:51;3.43;;;2.43;;
4268;SDS011;2148;48.554;7.834;2022-08-11T02:32:24;2.47;;;2.27;;
4268;SDS011;2148;48.554;7.834;2022-08-11T02:35:31;3.13;;;2.60;;
4268;SDS011;2148;48.554;7.834;2022-08-11T02:40:59;3.27;;;2.50;;
4268;SDS011;2148;48.554;7.834;2022-08-11T02:49:25;2.83;;;2.53;;
4268;SDS011;2148;48.554;7.834;2022-08-11T02:52:24;3.90;;;2.50;;
4268;SDS011;2148;48.554;7.834;2022-08-11T03:00:41;2.70;;;2.50;;
4268;SDS011;2148;48.554;7.834;2022-08-11T03:03:32;4.70;;;2.50;;
4268;SDS011;2148;48.554;7.834;2022-08-11T03:11:30;2.87;;;2.50;;
4268;SDS011;2148;48.554;7.834;2022-08-11T03:14:30;2.60;;;2.40;;
4268;SDS011;2148;48.554;7.834;2022-08-11T03:17:25;3.10;;;2.47;;
4268;SDS011;2148;48.554;7.834;2022-08-11T03:28:10;3.50;;;3.20;;
4268;SDS011;2148;48.554;7.834;2022-08-11T03:30:45;4.87;;;3.37;;
4268;SDS011;2148;48.554;7.834;2022-08-11T03:33:22;4.47;;;3.00;;
4268;SDS011;2148;48.554;7.834;2022-08-11T03:36:19;3.30;;;3.00;;
4268;SDS011;2148;48.554;7.834;2022-08-11T03:50:46;5.57;;;3.30;;
4268;SDS011;2148;48.554;7.834;2022-08-11T04:12:36;3.70;;;2.80;;
4268;SDS011;2148;48.554;7.834;2022-08-11T04:18:04;4.63;;;3.13;;
4268;SDS011;2148;48.554;7.834;2022-08-11T04:20:48;4.87;;;3.00;;
4268;SDS011;2148;48.554;7.834;2022-08-11T04:26:25;5.77;;;3.17;;
4268;SDS011;2148;48.554;7.834;2022-08-11T04:49:38;4.93;;;3.00;;
4268;SDS011;2148;48.554;7.834;2022-08-11T04:52:41;4.10;;;2.93;;
4268;SDS011;2148;48.554;7.834;2022-08-11T05:10:47;3.53;;;2.83;;
4268;SDS011;2148;48.554;7.834;2022-08-11T05:16:14;3.80;;;2.73;;
4268;SDS011;2148;48.554;7.834;2022-08-11T05:19:01;3.50;;;3.20;;
4268;SDS011;2148;48.554;7.834;2022-08-11T05:21:47;3.93;;;3.13;;
4268;SDS011;2148;48.554;7.834;2022-08-11T05:24:38;4.87;;;2.90;;
4268;SDS011;2148;48.554;7.834;2022-08-11T05:27:48;3.77;;;3.10;;
4268;SDS011;2148;48.554;7.834;2022-08-11T05:30:34;4.43;;;3.03;;
4268;SDS011;2148;48.554;7.834;2022-08-11T05:33:20;6.23;;;2.80;;
4268;SDS011;2148;48.554;7.834;2022-08-11T05:38:48;4.67;;;3.30;;
4268;SDS011;2148;48.554;7.834;2022-08-11T05:41:38;3.57;;;2.90;;
4268;SDS011;2148;48.554;7.834;2022-08-11T05:44:22;3.37;;;2.93;;
4268;SDS011;2148;48.554;7.834;2022-08-11T05:47:07;4.13;;;2.97;;
4268;SDS011;2148;48.554;7.834;2022-08-11T05:49:51;3.53;;;3.00;;
4268;SDS011;2148;48.554;7.834;2022-08-11T05:52:35;2.90;;;2.67;;
4268;SDS011;2148;48.554;7.834;2022-08-11T05:55:19;4.17;;;2.70;;
4268;SDS011;2148;48.554;7.834;2022-08-11T05:58:04;3.77;;;3.13;;
4268;SDS011;2148;48.554;7.834;2022-08-11T06:00:37;4.23;;;2.90;;
4268;SDS011;2148;48.554;7.834;2022-08-11T06:03:05;6.60;;;4.10;;
4268;SDS011;2148;48.554;7.834;2022-08-11T06:05:35;6.37;;;4.10;;
4268;SDS011;2148;48.554;7.834;2022-08-11T06:08:02;5.57;;;3.13;;
4268;SDS011;2148;48.554;7.834;2022-08-11T06:10:29;3.93;;;3.10;;
4268;SDS011;2148;48.554;7.834;2022-08-11T06:13:00;3.10;;;2.90;;
4268;SDS011;2148;48.554;7.834;2022-08-11T06:15:26;4.40;;;3.03;;
4268;SDS011;2148;48.554;7.834;2022-08-11T06:17:52;2.90;;;2.70;;
4268;SDS011;2148;48.554;7.834;2022-08-11T06:20:19;5.10;;;2.80;;
4268;SDS011;2148;48.554;7.834;2022-08-11T06:22:46;5.37;;;3.20;;
4268;SDS011;2148;48.554;7.834;2022-08-11T06:25:14;3.80;;;3.33;;
4268;SDS011;2148;48.554;7.834;2022-08-11T06:27:41;4.00;;;2.70;;
4268;SDS011;2148;48.554;7.834;2022-08-11T06:30:08;3.10;;;2.90;;
4268;SDS011;2148;48.554;7.834;2022-08-11T06:32:42;6.37;;;3.00;;
4268;SDS011;2148;48.554;7.834;2022-08-11T06:35:10;3.50;;;2.97;;
4268;SDS011;2148;48.554;7.834;2022-08-11T06:37:43;2.83;;;2.60;;
4268;SDS011;2148;48.554;7.834;2022-08-11T06:43:40;3.90;;;2.80;;
4268;SDS011;2148;48.554;7.834;2022-08-11T06:46:11;4.90;;;3.07;;
4268;SDS011;2148;48.554;7.834;2022-08-11T06:48:39;4.70;;;2.90;;
4268;SDS011;2148;48.554;7.834;2022-08-11T06:51:07;5.23;;;2.90;;
4268;SDS011;2148;48.554;7.834;2022-08-11T06:53:59;3.50;;;3.20;;
4268;SDS011;2148;48.554;7.834;2022-08-11T06:56:30;3.40;;;3.10;;
4268;SDS011;2148;48.554;7.834;2022-08-11T06:59:16;3.93;;;2.83;;
4268;SDS011;2148;48.554;7.834;2022-08-11T07:04:42;4.53;;;2.90;;
4268;SDS011;2148;48.554;7.834;2022-08-11T07:13:26;5.00;;;3.10;;
4268;SDS011;2148;48.554;7.834;2022-08-11T07:16:10;4.83;;;3.50;;
4268;SDS011;2148;48.554;7.834;2022-08-11T07:18:40;4.77;;;3.10;;
4268;SDS011;2148;48.554;7.834;2022-08-11T07:21:28;3.10;;;2.70;;
4268;SDS011;2148;48.554;7.834;2022-08-11T07:24:18;3.30;;;3.00;;
4268;SDS011;2148;48.554;7.834;2022-08-11T07:27:05;3.03;;;2.80;;
4268;SDS011;2148;48.554;7.834;2022-08-11T07:29:53;5.00;;;3.20;;
4268;SDS011;2148;48.554;7.834;2022-08-11T07:32:27;3.90;;;3.00;;
4268;SDS011;2148;48.554;7.834;2022-08-11T07:35:11;4.00;;;3.10;;
4268;SDS011;2148;48.554;7.834;2022-08-11T07:37:39;3.90;;;2.77;;
4268;SDS011;2148;48.554;7.834;2022-08-11T07:40:05;3.70;;;3.20;;
4268;SDS011;2148;48.554;7.834;2022-08-11T07:42:31;5.67;;;3.50;;
4268;SDS011;2148;48.554;7.834;2022-08-11T07:45:01;4.03;;;2.90;;
4268;SDS011;2148;48.554;7.834;2022-08-11T07:47:47;4.57;;;3.50;;
4268;SDS011;2148;48.554;7.834;2022-08-11T07:50:31;3.70;;;2.70;;
4268;SDS011;2148;48.554;7.834;2022-08-11T07:53:15;3.87;;;3.07;;
4268;SDS011;2148;48.554;7.834;2022-08-11T07:55:42;4.63;;;3.20;;
4268;SDS011;2148;48.554;7.834;2022-08-11T07:58:08;3.10;;;2.77;;
4268;SDS011;2148;48.554;7.834;2022-08-11T08:00:55;6.63;;;2.80;;
4268;SDS011;2148;48.554;7.834;2022-08-11T08:03:40;4.07;;;2.87;;
4268;SDS011;2148;48.554;7.834;2022-08-11T08:06:25;2.57;;;2.37;;
4268;SDS011;2148;48.554;7.834;2022-08-11T08:09:10;3.60;;;2.80;;
4268;SDS011;2148;48.554;7.834;2022-08-11T08:11:55;4.57;;;3.03;;
4268;SDS011;2148;48.554;7.834;2022-08-11T08:14:39;4.70;;;2.70;;
4268;SDS011;2148;48.554;7.834;2022-08-11T08:17:23;4.10;;;2.93;;
4268;SDS011;2148;48.554;7.834;2022-08-11T08:20:09;5.17;;;2.97;;
4268;SDS011;2148;48.554;7.834;2022-08-11T08:22:36;6.00;;;2.90;;
4268;SDS011;2148;48.554;7.834;2022-08-11T08:25:02;5.20;;;3.20;;
4268;SDS011;2148;48.554;7.834;2022-08-11T08:27:29;3.97;;;2.70;;
4268;SDS011;2148;48.554;7.834;2022-08-11T08:29:54;4.17;;;2.60;;
4268;SDS011;2148;48.554;7.834;2022-08-11T08:32:39;4.00;;;2.60;;
4268;SDS011;2148;48.554;7.834;2022-08-11T08:35:06;3.40;;;3.10;;
4268;SDS011;2148;48.554;7.834;2022-08-11T08:37:34;3.30;;;3.00;;
4268;SDS011;2148;48.554;7.834;2022-08-11T08:40:00;3.63;;;2.73;;
4268;SDS011;2148;48.554;7.834;2022-08-11T08:42:26;3.87;;;3.10;;
4268;SDS011;2148;48.554;7.834;2022-08-11T08:45:07;3.33;;;3.03;;
4268;SDS011;2148;48.554;7.834;2022-08-11T08:47:34;3.87;;;2.53;;
4268;SDS011;2148;48.554;7.834;2022-08-11T08:50:02;3.33;;;2.80;;
4268;SDS011;2148;48.554;7.834;2022-08-11T08:52:33;3.43;;;2.73;;
4268;SDS011;2148;48.554;7.834;2022-08-11T08:55:05;2.97;;;2.77;;
4268;SDS011;2148;48.554;7.834;2022-08-11T08:57:35;4.27;;;2.80;;
4268;SDS011;2148;48.554;7.834;2022-08-11T09:00:01;3.97;;;2.50;;
4268;SDS011;2148;48.554;7.834;2022-08-11T09:02:29;7.20;;;2.90;;
4268;SDS011;2148;48.554;7.834;2022-08-11T09:04:54;4.50;;;3.10;;
4268;SDS011;2148;48.554;7.834;2022-08-11T09:07:21;5.50;;;2.87;;
4268;SDS011;2148;48.554;7.834;2022-08-11T09:09:51;5.80;;;2.90;;
4268;SDS011;2148;48.554;7.834;2022-08-11T09:12:19;7.13;;;2.90;;
4268;SDS011;2148;48.554;7.834;2022-08-11T09:14:46;3.50;;;2.47;;
4268;SDS011;2148;48.554;7.834;2022-08-11T09:17:27;3.90;;;2.57;;
4268;SDS011;2148;48.554;7.834;2022-08-11T09:19:55;2.83;;;2.63;;
4268;SDS011;2148;48.554;7.834;2022-08-11T09:22:31;4.37;;;2.83;;
4268;SDS011;2148;48.554;7.834;2022-08-11T09:25:21;3.77;;;3.00;;
4268;SDS011;2148;48.554;7.834;2022-08-11T09:28:08;3.23;;;2.67;;
4268;SDS011;2148;48.554;7.834;2022-08-11T09:30:35;4.40;;;2.90;;
4268;SDS011;2148;48.554;7.834;2022-08-11T09:33:00;4.80;;;2.70;;
4268;SDS011;2148;48.554;7.834;2022-08-11T09:35:26;4.93;;;2.47;;
4268;SDS011;2148;48.554;7.834;2022-08-11T09:37:56;4.87;;;2.50;;
4268;SDS011;2148;48.554;7.834;2022-08-11T09:40:41;2.47;;;2.20;;
4268;SDS011;2148;48.554;7.834;2022-08-11T09:43:09;3.07;;;2.17;;
4268;SDS011;2148;48.554;7.834;2022-08-11T09:45:54;3.10;;;2.13;;
4268;SDS011;2148;48.554;7.834;2022-08-11T09:48:21;4.33;;;2.20;;
4268;SDS011;2148;48.554;7.834;2022-08-11T09:50:48;4.40;;;2.27;;
4268;SDS011;2148;48.554;7.834;2022-08-11T09:53:15;3.17;;;2.30;;
4268;SDS011;2148;48.554;7.834;2022-08-11T09:55:42;2.40;;;2.20;;
4268;SDS011;2148;48.554;7.834;2022-08-11T09:58:08;2.13;;;1.93;;
4268;SDS011;2148;48.554;7.834;2022-08-11T10:00:43;2.60;;;2.40;;
4268;SDS011;2148;48.554;7.834;2022-08-11T10:03:14;3.93;;;2.30;;
4268;SDS011;2148;48.554;7.834;2022-08-11T10:05:45;3.30;;;2.10;;
4268;SDS011;2148;48.554;7.834;2022-08-11T10:08:30;2.80;;;2.20;;
4268;SDS011;2148;48.554;7.834;2022-08-11T10:10:57;3.33;;;2.30;;
4268;SDS011;2148;48.554;7.834;2022-08-11T10:13:25;1.90;;;1.80;;
4268;SDS011;2148;48.554;7.834;2022-08-11T10:15:59;2.30;;;2.10;;
4268;SDS011;2148;48.554;7.834;2022-08-11T10:18:34;2.10;;;2.00;;
4268;SDS011;2148;48.554;7.834;2022-08-11T10:21:14;2.93;;;2.30;;
4268;SDS011;2148;48.554;7.834;2022-08-11T10:23:46;2.20;;;2.00;;
4268;SDS011;2148;48.554;7.834;2022-08-11T10:26:30;2.30;;;2.10;;
4268;SDS011;2148;48.554;7.834;2022-08-11T10:29:19;6.70;;;2.47;;
4268;SDS011;2148;48.554;7.834;2022-08-11T10:32:04;2.63;;;2.17;;
4268;SDS011;2148;48.554;7.834;2022-08-11T10:34:50;2.73;;;2.53;;
4268;SDS011;2148;48.554;7.834;2022-08-11T10:37:16;3.57;;;2.27;;
4268;SDS011;2148;48.554;7.834;2022-08-11T10:39:44;4.33;;;1.80;;
4268;SDS011;2148;48.554;7.834;2022-08-11T10:42:10;3.27;;;2.30;;
4268;SDS011;2148;48.554;7.834;2022-08-11T10:44:59;2.90;;;2.10;;
4268;SDS011;2148;48.554;7.834;2022-08-11T10:47:26;2.20;;;1.97;;
4268;SDS011;2148;48.554;7.834;2022-08-11T10:50:02;2.87;;;2.00;;
4268;SDS011;2148;48.554;7.834;2022-08-11T10:52:50;2.58;;;2.38;;
4268;SDS011;2148;48.554;7.834;2022-08-11T10:55:35;3.20;;;2.30;;
4268;SDS011;2148;48.554;7.834;2022-08-11T10:58:20;2.10;;;1.90;;
4268;SDS011;2148;48.554;7.834;2022-08-11T11:01:05;5.63;;;2.27;;
4268;SDS011;2148;48.554;7.834;2022-08-11T11:03:30;3.50;;;1.87;;
4268;SDS011;2148;48.554;7.834;2022-08-11T11:06:05;2.80;;;1.90;;
4268;SDS011;2148;48.554;7.834;2022-08-11T11:08:35;4.83;;;2.03;;
4268;SDS011;2148;48.554;7.834;2022-08-11T11:11:16;2.63;;;2.00;;
4268;SDS011;2148;48.554;7.834;2022-08-11T11:13:43;3.75;;;2.13;;
4268;SDS011;2148;48.554;7.834;2022-08-11T11:16:30;2.20;;;2.00;;
4268;SDS011;2148;48.554;7.834;2022-08-11T11:19:14;2.33;;;2.10;;
4268;SDS011;2148;48.554;7.834;2022-08-11T11:21:43;3.93;;;2.20;;
4268;SDS011;2148;48.554;7.834;2022-08-11T11:27:20;3.10;;;2.17;;
4268;SDS011;2148;48.554;7.834;2022-08-11T11:30:08;2.13;;;1.93;;
4268;SDS011;2148;48.554;7.834;2022-08-11T11:35:06;2.42;;;2.10;;
4268;SDS011;2148;48.554;7.834;2022-08-11T11:37:48;3.40;;;1.93;;
4268;SDS011;2148;48.554;7.834;2022-08-11T11:40:15;1.92;;;1.77;;
4268;SDS011;2148;48.554;7.834;2022-08-11T11:42:45;2.80;;;2.08;;
4268;SDS011;2148;48.554;7.834;2022-08-11T11:45:16;2.30;;;2.08;;
4268;SDS011;2148;48.554;7.834;2022-08-11T11:47:43;3.37;;;2.03;;
4268;SDS011;2148;48.554;7.834;2022-08-11T11:50:08;2.15;;;1.98;;
4268;SDS011;2148;48.554;7.834;2022-08-11T11:52:34;3.45;;;1.92;;
4268;SDS011;2148;48.554;7.834;2022-08-11T11:55:00;3.22;;;2.03;;
4268;SDS011;2148;48.554;7.834;2022-08-11T11:57:26;2.85;;;2.08;;
4268;SDS011;2148;48.554;7.834;2022-08-11T12:00:11;3.95;;;2.20;;
4268;SDS011;2148;48.554;7.834;2022-08-11T12:02:57;2.10;;;1.90;;
4268;SDS011;2148;48.554;7.834;2022-08-11T12:05:24;3.03;;;2.20;;
4268;SDS011;2148;48.554;7.834;2022-08-11T12:07:50;2.65;;;2.00;;
4268;SDS011;2148;48.554;7.834;2022-08-11T12:10:35;2.33;;;1.80;;
4268;SDS011;2148;48.554;7.834;2022-08-11T12:13:01;1.90;;;1.80;;
4268;SDS011;2148;48.554;7.834;2022-08-11T12:15:45;3.60;;;1.80;;
4268;SDS011;2148;48.554;7.834;2022-08-11T12:18:11;2.63;;;2.10;;
4268;SDS011;2148;48.554;7.834;2022-08-11T12:20:38;2.38;;;1.92;;
4268;SDS011;2148;48.554;7.834;2022-08-11T12:23:03;2.67;;;2.17;;
4268;SDS011;2148;48.554;7.834;2022-08-11T12:25:47;3.58;;;1.92;;
4268;SDS011;2148;48.554;7.834;2022-08-11T12:28:31;2.33;;;2.10;;
4268;SDS011;2148;48.554;7.834;2022-08-11T12:30:57;2.35;;;2.15;;
4268;SDS011;2148;48.554;7.834;2022-08-11T12:33:23;5.85;;;2.00;;
4268;SDS011;2148;48.554;7.834;2022-08-11T12:35:51;3.25;;;2.10;;
4268;SDS011;2148;48.554;7.834;2022-08-11T12:38:22;2.35;;;2.08;;
4268;SDS011;2148;48.554;7.834;2022-08-11T12:40:47;3.42;;;1.90;;
4268;SDS011;2148;48.554;7.834;2022-08-11T12:43:32;2.95;;;1.92;;
4268;SDS011;2148;48.554;7.834;2022-08-11T12:46:24;2.47;;;2.20;;
4268;SDS011;2148;48.554;7.834;2022-08-11T12:48:56;2.00;;;1.80;;
4268;SDS011;2148;48.554;7.834;2022-08-11T12:51:44;3.45;;;2.03;;
4268;SDS011;2148;48.554;7.834;2022-08-11T12:55:24;3.40;;;2.10;;
4268;SDS011;2148;48.554;7.834;2022-08-11T13:00:18;5.03;;;2.22;;
4268;SDS011;2148;48.554;7.834;2022-08-11T13:03:04;2.15;;;1.88;;
4268;SDS011;2148;48.554;7.834;2022-08-11T13:05:51;3.10;;;1.90;;
4268;SDS011;2148;48.554;7.834;2022-08-11T13:08:18;3.25;;;2.00;;
4268;SDS011;2148;48.554;7.834;2022-08-11T13:10:44;3.08;;;2.42;;
4268;SDS011;2148;48.554;7.834;2022-08-11T13:13:28;3.40;;;2.60;;
4268;SDS011;2148;48.554;7.834;2022-08-11T13:15:53;3.47;;;1.90;;
4268;SDS011;2148;48.554;7.834;2022-08-11T13:18:20;2.78;;;2.10;;
4268;SDS011;2148;48.554;7.834;2022-08-11T13:20:56;6.07;;;2.10;;
4268;SDS011;2148;48.554;7.834;2022-08-11T13:23:22;3.78;;;2.10;;
4268;SDS011;2148;48.554;7.834;2022-08-11T13:25:48;2.25;;;2.00;;
4268;SDS011;2148;48.554;7.834;2022-08-11T13:28:14;4.18;;;2.30;;
4268;SDS011;2148;48.554;7.834;2022-08-11T13:30:40;2.97;;;2.20;;
4268;SDS011;2148;48.554;7.834;2022-08-11T13:33:24;3.33;;;1.90;;
4268;SDS011;2148;48.554;7.834;2022-08-11T13:35:51;2.42;;;2.08;;
4268;SDS011;2148;48.554;7.834;2022-08-11T13:38:20;3.13;;;2.00;;
4268;SDS011;2148;48.554;7.834;2022-08-11T13:40:48;3.08;;;2.15;;
4268;SDS011;2148;48.554;7.834;2022-08-11T13:43:14;2.40;;;1.90;;
4268;SDS011;2148;48.554;7.834;2022-08-11T13:45:40;2.55;;;2.13;;
4268;SDS011;2148;48.554;7.834;2022-08-11T13:48:07;6.35;;;2.42;;
4268;SDS011;2148;48.554;7.834;2022-08-11T13:50:33;4.35;;;2.15;;
4268;SDS011;2148;48.554;7.834;2022-08-11T13:53:19;2.20;;;1.92;;
4268;SDS011;2148;48.554;7.834;2022-08-11T13:55:46;4.28;;;2.20;;
4268;SDS011;2148;48.554;7.834;2022-08-11T13:58:12;2.22;;;2.00;;
4268;SDS011;2148;48.554;7.834;2022-08-11T14:00:38;3.17;;;2.22;;
4268;SDS011;2148;48.554;7.834;2022-08-11T14:03:09;2.30;;;2.10;;
4268;SDS011;2148;48.554;7.834;2022-08-11T14:05:38;2.58;;;2.10;;
4268;SDS011;2148;48.554;7.834;2022-08-11T14:08:06;2.53;;;2.30;;
4268;SDS011;2148;48.554;7.834;2022-08-11T14:10:36;2.10;;;1.90;;
4268;SDS011;2148;48.554;7.834;2022-08-11T14:13:06;2.05;;;1.88;;
4268;SDS011;2148;48.554;7.834;2022-08-11T14:15:57;2.90;;;2.40;;
4268;SDS011;2148;48.554;7.834;2022-08-11T14:18:28;2.30;;;2.10;;
4268;SDS011;2148;48.554;7.834;2022-08-11T14:20:56;2.85;;;1.98;;
4268;SDS011;2148;48.554;7.834;2022-08-11T14:23:42;5.57;;;2.17;;
4268;SDS011;2148;48.554;7.834;2022-08-11T14:26:09;4.82;;;2.25;;
4268;SDS011;2148;48.554;7.834;2022-08-11T14:31:34;2.58;;;2.38;;
4268;SDS011;2148;48.554;7.834;2022-08-11T14:34:03;3.22;;;2.15;;
4268;SDS011;2148;48.554;7.834;2022-08-11T14:36:33;2.90;;;2.17;;
4268;SDS011;2148;48.554;7.834;2022-08-11T14:39:09;3.53;;;2.30;;
4268;SDS011;2148;48.554;7.834;2022-08-11T14:41:36;2.90;;;2.60;;
4268;SDS011;2148;48.554;7.834;2022-08-11T14:44:22;6.28;;;2.60;;
4268;SDS011;2148;48.554;7.834;2022-08-11T14:47:07;3.50;;;2.40;;
4268;SDS011;2148;48.554;7.834;2022-08-11T14:49:38;8.63;;;2.80;;
4268;SDS011;2148;48.554;7.834;2022-08-11T14:52:13;3.83;;;2.25;;
4268;SDS011;2148;48.554;7.834;2022-08-11T14:54:44;3.78;;;2.15;;
4268;SDS011;2148;48.554;7.834;2022-08-11T14:57:30;2.47;;;1.90;;
4268;SDS011;2148;48.554;7.834;2022-08-11T14:59:57;3.42;;;1.90;;
4268;SDS011;2148;48.554;7.834;2022-08-11T15:02:24;3.08;;;2.25;;
4268;SDS011;2148;48.554;7.834;2022-08-11T15:05:08;4.78;;;2.08;;
4268;SDS011;2148;48.554;7.834;2022-08-11T15:07:34;2.17;;;1.98;;
4268;SDS011;2148;48.554;7.834;2022-08-11T15:10:04;3.22;;;2.40;;
4268;SDS011;2148;48.554;7.834;2022-08-11T15:12:32;2.95;;;2.13;;
4268;SDS011;2148;48.554;7.834;2022-08-11T15:14:58;4.03;;;1.90;;
4268;SDS011;2148;48.554;7.834;2022-08-11T15:17:43;2.75;;;2.03;;
4268;SDS011;2148;48.554;7.834;2022-08-11T15:20:12;2.38;;;2.17;;
4268;SDS011;2148;48.554;7.834;2022-08-11T15:22:57;3.08;;;2.35;;
4268;SDS011;2148;48.554;7.834;2022-08-11T15:25:42;2.95;;;2.00;;
4268;SDS011;2148;48.554;7.834;2022-08-11T15:28:09;2.60;;;1.90;;
4268;SDS011;2148;48.554;7.834;2022-08-11T15:30:54;2.20;;;1.95;;
4268;SDS011;2148;48.554;7.834;2022-08-11T15:33:39;2.13;;;1.92;;
4268;SDS011;2148;48.554;7.834;2022-08-11T15:36:23;4.20;;;2.20;;
4268;SDS011;2148;48.554;7.834;2022-08-11T15:39:18;3.38;;;1.80;;
4268;SDS011;2148;48.554;7.834;2022-08-11T15:41:48;2.30;;;2.10;;
4268;SDS011;2148;48.554;7.834;2022-08-11T15:44:33;2.38;;;2.00;;
4268;SDS011;2148;48.554;7.834;2022-08-11T15:47:22;2.30;;;2.10;;
4268;SDS011;2148;48.554;7.834;2022-08-11T15:49:52;6.80;;;3.22;;
4268;SDS011;2148;48.554;7.834;2022-08-11T15:52:20;2.95;;;2.00;;
4268;SDS011;2148;48.554;7.834;2022-08-11T15:54:47;2.30;;;1.80;;
4268;SDS011;2148;48.554;7.834;2022-08-11T15:57:13;2.55;;;1.90;;
4268;SDS011;2148;48.554;7.834;2022-08-11T16:00:02;4.43;;;2.10;;
4268;SDS011;2148;48.554;7.834;2022-08-11T16:02:47;2.33;;;1.90;;
4268;SDS011;2148;48.554;7.834;2022-08-11T16:05:14;3.60;;;2.05;;
4268;SDS011;2148;48.554;7.834;2022-08-11T16:07:41;4.00;;;2.03;;
4268;SDS011;2148;48.554;7.834;2022-08-11T16:10:11;2.45;;;2.25;;
4268;SDS011;2148;48.554;7.834;2022-08-11T16:12:51;2.10;;;1.90;;
4268;SDS011;2148;48.554;7.834;2022-08-11T16:15:30;2.08;;;1.88;;
4268;SDS011;2148;48.554;7.834;2022-08-11T16:18:15;3.50;;;2.20;;
4268;SDS011;2148;48.554;7.834;2022-08-11T16:20:43;2.08;;;1.77;;
4268;SDS011;2148;48.554;7.834;2022-08-11T16:23:09;2.88;;;2.30;;
4268;SDS011;2148;48.554;7.834;2022-08-11T16:25:35;3.45;;;2.10;;
4268;SDS011;2148;48.554;7.834;2022-08-11T16:28:03;1.90;;;1.80;;
4268;SDS011;2148;48.554;7.834;2022-08-11T16:30:30;1.90;;;1.80;;
4268;SDS011;2148;48.554;7.834;2022-08-11T16:32:58;2.08;;;1.90;;
4268;SDS011;2148;48.554;7.834;2022-08-11T16:35:24;2.30;;;2.10;;
4268;SDS011;2148;48.554;7.834;2022-08-11T16:38:10;2.78;;;2.35;;
4268;SDS011;2148;48.554;7.834;2022-08-11T16:40:55;3.40;;;2.17;;
4268;SDS011;2148;48.554;7.834;2022-08-11T16:43:23;3.58;;;2.25;;
4268;SDS011;2148;48.554;7.834;2022-08-11T16:46:09;2.85;;;2.25;;
4268;SDS011;2148;48.554;7.834;2022-08-11T16:48:55;2.60;;;2.22;;
4268;SDS011;2148;48.554;7.834;2022-08-11T16:51:21;4.45;;;1.98;;
4268;SDS011;2148;48.554;7.834;2022-08-11T16:53:47;3.95;;;2.22;;
4268;SDS011;2148;48.554;7.834;2022-08-11T16:56:14;3.83;;;2.30;;
4268;SDS011;2148;48.554;7.834;2022-08-11T16:58:51;3.55;;;2.42;;
4268;SDS011;2148;48.554;7.834;2022-08-11T17:01:38;2.20;;;2.00;;
4268;SDS011;2148;48.554;7.834;2022-08-11T17:04:19;2.30;;;2.00;;
4268;SDS011;2148;48.554;7.834;2022-08-11T17:07:07;3.33;;;1.80;;
4268;SDS011;2148;48.554;7.834;2022-08-11T17:09:59;2.25;;;1.90;;
4268;SDS011;2148;48.554;7.834;2022-08-11T17:13:00;4.57;;;2.00;;
4268;SDS011;2148;48.554;7.834;2022-08-11T17:15:36;4.85;;;2.33;;
4268;SDS011;2148;48.554;7.834;2022-08-11T17:18:22;4.45;;;2.00;;
4268;SDS011;2148;48.554;7.834;2022-08-11T17:21:11;2.50;;;2.30;;
4268;SDS011;2148;48.554;7.834;2022-08-11T17:23:39;2.38;;;2.17;;
4268;SDS011;2148;48.554;7.834;2022-08-11T17:26:13;2.97;;;2.28;;
4268;SDS011;2148;48.554;7.834;2022-08-11T17:28:44;3.72;;;2.00;;
4268;SDS011;2148;48.554;7.834;2022-08-11T17:31:15;2.90;;;1.92;;
4268;SDS011;2148;48.554;7.834;2022-08-11T17:33:59;2.20;;;2.00;;
4268;SDS011;2148;48.554;7.834;2022-08-11T17:36:44;3.22;;;2.17;;
4268;SDS011;2148;48.554;7.834;2022-08-11T17:39:09;4.18;;;2.03;;
4268;SDS011;2148;48.554;7.834;2022-08-11T17:41:36;1.88;;;1.77;;
4268;SDS011;2148;48.554;7.834;2022-08-11T17:44:21;4.28;;;2.20;;
4268;SDS011;2148;48.554;7.834;2022-08-11T17:47:09;2.17;;;1.95;;
4268;SDS011;2148;48.554;7.834;2022-08-11T17:49:53;3.90;;;1.98;;
4268;SDS011;2148;48.554;7.834;2022-08-11T17:52:19;3.90;;;2.10;;
4268;SDS011;2148;48.554;7.834;2022-08-11T17:55:04;4.75;;;2.20;;
4268;SDS011;2148;48.554;7.834;2022-08-11T17:57:48;3.40;;;2.17;;
4268;SDS011;2148;48.554;7.834;2022-08-11T18:00:33;2.53;;;2.33;;
4268;SDS011;2148;48.554;7.834;2022-08-11T18:02:59;4.25;;;2.53;;
4268;SDS011;2148;48.554;7.834;2022-08-11T18:05:45;4.75;;;2.90;;
4268;SDS011;2148;48.554;7.834;2022-08-11T18:08:11;3.88;;;2.25;;
4268;SDS011;2148;48.554;7.834;2022-08-11T18:10:55;6.07;;;2.42;;
4268;SDS011;2148;48.554;7.834;2022-08-11T18:13:41;3.45;;;2.15;;
4268;SDS011;2148;48.554;7.834;2022-08-11T18:16:25;2.95;;;2.00;;
4268;SDS011;2148;48.554;7.834;2022-08-11T18:19:09;3.45;;;1.90;;
4268;SDS011;2148;48.554;7.834;2022-08-11T18:21:54;4.30;;;2.40;;
4268;SDS011;2148;48.554;7.834;2022-08-11T18:24:53;4.07;;;2.65;;
4268;SDS011;2148;48.554;7.834;2022-08-11T18:27:41;5.07;;;2.47;;
4268;SDS011;2148;48.554;7.834;2022-08-11T18:30:27;4.68;;;2.42;;
4268;SDS011;2148;48.554;7.834;2022-08-11T18:33:14;3.88;;;2.20;;
4268;SDS011;2148;48.554;7.834;2022-08-11T18:35:58;5.90;;;2.60;;
4268;SDS011;2148;48.554;7.834;2022-08-11T18:38:43;2.88;;;2.55;;
4268;SDS011;2148;48.554;7.834;2022-08-11T18:41:29;5.40;;;2.08;;
4268;SDS011;2148;48.554;7.834;2022-08-11T18:44:14;3.25;;;2.30;;
4268;SDS011;2148;48.554;7.834;2022-08-11T18:47:01;4.10;;;2.35;;
4268;SDS011;2148;48.554;7.834;2022-08-11T18:49:48;3.95;;;2.25;;
4268;SDS011;2148;48.554;7.834;2022-08-11T18:52:35;4.85;;;1.75;;
4268;SDS011;2148;48.554;7.834;2022-08-11T18:55:20;5.70;;;2.00;;
4268;SDS011;2148;48.554;7.834;2022-08-11T18:58:06;3.90;;;2.13;;
4268;SDS011;2148;48.554;7.834;2022-08-11T19:00:53;3.22;;;2.17;;
4268;SDS011;2148;48.554;7.834;2022-08-11T19:03:39;3.45;;;2.10;;
4268;SDS011;2148;48.554;7.834;2022-08-11T19:06:24;2.95;;;2.03;;
4268;SDS011;2148;48.554;7.834;2022-08-11T19:09:09;4.25;;;2.63;;
4268;SDS011;2148;48.554;7.834;2022-08-11T19:11:55;4.30;;;2.50;;
4268;SDS011;2148;48.554;7.834;2022-08-11T19:14:39;6.93;;;2.53;;
4268;SDS011;2148;48.554;7.834;2022-08-11T19:17:24;7.32;;;2.55;;
4268;SDS011;2148;48.554;7.834;2022-08-11T19:20:12;2.67;;;2.00;;
4268;SDS011;2148;48.554;7.834;2022-08-11T19:22:59;6.15;;;2.13;;